sensor_id;sensor_type;location;lat;lon;timestamp;P1;durP1;ratioP1;P2;durP2;ratioP2
57443;SDS011;43289;52.962;6.196;2022-11-20T00:00:19;15.70;;;10.20;;
57443;SDS011;43289;52.962;6.196;2022-11-20T00:02:45;15.93;;;10.45;;
57443;SDS011;43289;52.962;6.196;2022-11-20T00:05:11;13.98;;;8.57;;
57443;SDS011;43289;52.962;6.196;2022-11-20T00:07:37;14.45;;;9.30;;
57443;SDS011;43289;52.962;6.196;2022-11-20T00:10:03;14.32;;;9.57;;
57443;SDS011;43289;52.962;6.196;2022-11-20T00:12:29;14.85;;;8.25;;
57443;SDS011;43289;52.962;6.196;2022-11-20T00:14:55;16.10;;;9.90;;
57443;SDS011;43289;52.962;6.196;2022-11-20T00:17:21;13.80;;;9.27;;
57443;SDS011;43289;52.962;6.196;2022-11-20T00:19:47;17.23;;;10.40;;
57443;SDS011;43289;52.962;6.196;2022-11-20T00:22:14;17.60;;;11.60;;
57443;SDS011;43289;52.962;6.196;2022-11-20T00:24:40;16.83;;;11.73;;
57443;SDS011;43289;52.962;6.196;2022-11-20T00:27:06;15.00;;;9.75;;
57443;SDS011;43289;52.962;6.196;2022-11-20T00:29:32;16.02;;;10.73;;
57443;SDS011;43289;52.962;6.196;2022-11-20T00:31:58;17.70;;;9.68;;
57443;SDS011;43289;52.962;6.196;2022-11-20T00:34:24;18.42;;;10.85;;
57443;SDS011;43289;52.962;6.196;2022-11-20T00:36:50;17.10;;;10.73;;
57443;SDS011;43289;52.962;6.196;2022-11-20T00:39:16;21.70;;;12.85;;
57443;SDS011;43289;52.962;6.196;2022-11-20T00:41:42;18.02;;;11.30;;
57443;SDS011;43289;52.962;6.196;2022-11-20T00:44:08;18.70;;;11.45;;
57443;SDS011;43289;52.962;6.196;2022-11-20T00:46:33;15.82;;;10.60;;
57443;SDS011;43289;52.962;6.196;2022-11-20T00:49:00;15.35;;;10.73;;
57443;SDS011;43289;52.962;6.196;2022-11-20T00:51:26;16.30;;;10.20;;
57443;SDS011;43289;52.962;6.196;2022-11-20T00:53:54;17.90;;;11.27;;
57443;SDS011;43289;52.962;6.196;2022-11-20T00:56:20;14.45;;;9.85;;
57443;SDS011;43289;52.962;6.196;2022-11-20T00:58:47;17.90;;;11.07;;
57443;SDS011;43289;52.962;6.196;2022-11-20T01:01:23;15.70;;;9.55;;
57443;SDS011;43289;52.962;6.196;2022-11-20T01:03:50;18.30;;;11.20;;
57443;SDS011;43289;52.962;6.196;2022-11-20T01:06:18;18.05;;;10.60;;
57443;SDS011;43289;52.962;6.196;2022-11-20T01:08:44;14.18;;;9.75;;
57443;SDS011;43289;52.962;6.196;2022-11-20T01:11:11;16.40;;;9.88;;
57443;SDS011;43289;52.962;6.196;2022-11-20T01:13:37;17.95;;;10.63;;
57443;SDS011;43289;52.962;6.196;2022-11-20T01:16:11;17.30;;;10.65;;
57443;SDS011;43289;52.962;6.196;2022-11-20T01:18:38;14.63;;;10.13;;
57443;SDS011;43289;52.962;6.196;2022-11-20T01:21:05;17.08;;;10.82;;
57443;SDS011;43289;52.962;6.196;2022-11-20T01:23:32;16.30;;;9.88;;
57443;SDS011;43289;52.962;6.196;2022-11-20T01:25:59;17.90;;;10.38;;
57443;SDS011;43289;52.962;6.196;2022-11-20T01:28:25;19.13;;;10.60;;
57443;SDS011;43289;52.962;6.196;2022-11-20T01:30:51;17.65;;;10.82;;
57443;SDS011;43289;52.962;6.196;2022-11-20T01:33:17;15.65;;;10.02;;
57443;SDS011;43289;52.962;6.196;2022-11-20T01:35:43;15.45;;;9.32;;
57443;SDS011;43289;52.962;6.196;2022-11-20T01:38:09;17.08;;;9.90;;
57443;SDS011;43289;52.962;6.196;2022-11-20T01:40:35;14.93;;;9.60;;
57443;SDS011;43289;52.962;6.196;2022-11-20T01:43:09;16.80;;;9.82;;
57443;SDS011;43289;52.962;6.196;2022-11-20T01:48:19;15.25;;;11.13;;
57443;SDS011;43289;52.962;6.196;2022-11-20T01:50:47;16.33;;;10.73;;
57443;SDS011;43289;52.962;6.196;2022-11-20T01:53:14;17.85;;;10.13;;
57443;SDS011;43289;52.962;6.196;2022-11-20T01:55:46;17.45;;;10.98;;
57443;SDS011;43289;52.962;6.196;2022-11-20T01:58:13;17.17;;;10.95;;
57443;SDS011;43289;52.962;6.196;2022-11-20T02:00:40;17.88;;;10.60;;
57443;SDS011;43289;52.962;6.196;2022-11-20T02:03:09;16.80;;;10.13;;
57443;SDS011;43289;52.962;6.196;2022-11-20T02:05:40;19.10;;;11.60;;
57443;SDS011;43289;52.962;6.196;2022-11-20T02:08:09;18.85;;;11.60;;
57443;SDS011;43289;52.962;6.196;2022-11-20T02:10:35;19.60;;;10.23;;
57443;SDS011;43289;52.962;6.196;2022-11-20T02:13:01;17.83;;;10.90;;
57443;SDS011;43289;52.962;6.196;2022-11-20T02:15:45;18.98;;;11.30;;
57443;SDS011;43289;52.962;6.196;2022-11-20T02:18:13;16.80;;;10.43;;
57443;SDS011;43289;52.962;6.196;2022-11-20T02:20:41;15.43;;;10.65;;
57443;SDS011;43289;52.962;6.196;2022-11-20T02:23:10;19.17;;;11.07;;
57443;SDS011;43289;52.962;6.196;2022-11-20T02:25:38;17.98;;;10.65;;
57443;SDS011;43289;52.962;6.196;2022-11-20T02:28:05;18.65;;;11.52;;
57443;SDS011;43289;52.962;6.196;2022-11-20T02:30:31;16.05;;;10.38;;
57443;SDS011;43289;52.962;6.196;2022-11-20T02:32:57;17.33;;;10.40;;
57443;SDS011;43289;52.962;6.196;2022-11-20T02:37:50;18.67;;;10.95;;
57443;SDS011;43289;52.962;6.196;2022-11-20T02:40:18;16.73;;;10.48;;
57443;SDS011;43289;52.962;6.196;2022-11-20T02:42:44;22.60;;;12.27;;
57443;SDS011;43289;52.962;6.196;2022-11-20T02:45:10;15.63;;;9.98;;
57443;SDS011;43289;52.962;6.196;2022-11-20T02:47:36;16.25;;;10.50;;
57443;SDS011;43289;52.962;6.196;2022-11-20T02:50:03;16.88;;;10.85;;
57443;SDS011;43289;52.962;6.196;2022-11-20T02:52:29;17.40;;;10.52;;
57443;SDS011;43289;52.962;6.196;2022-11-20T02:54:56;16.00;;;10.35;;
57443;SDS011;43289;52.962;6.196;2022-11-20T02:57:22;13.95;;;9.88;;
57443;SDS011;43289;52.962;6.196;2022-11-20T02:59:48;17.35;;;10.52;;
57443;SDS011;43289;52.962;6.196;2022-11-20T03:02:14;15.70;;;10.95;;
57443;SDS011;43289;52.962;6.196;2022-11-20T03:04:40;18.98;;;10.93;;
57443;SDS011;43289;52.962;6.196;2022-11-20T03:07:07;18.15;;;11.93;;
57443;SDS011;43289;52.962;6.196;2022-11-20T03:09:33;19.17;;;10.60;;
57443;SDS011;43289;52.962;6.196;2022-11-20T03:11:59;19.35;;;11.73;;
57443;SDS011;43289;52.962;6.196;2022-11-20T03:14:25;15.18;;;9.75;;
57443;SDS011;43289;52.962;6.196;2022-11-20T03:16:51;15.00;;;10.23;;
57443;SDS011;43289;52.962;6.196;2022-11-20T03:19:18;18.85;;;10.63;;
57443;SDS011;43289;52.962;6.196;2022-11-20T03:21:44;16.52;;;11.10;;
57443;SDS011;43289;52.962;6.196;2022-11-20T03:24:10;16.77;;;11.00;;
57443;SDS011;43289;52.962;6.196;2022-11-20T03:26:36;17.75;;;10.88;;
57443;SDS011;43289;52.962;6.196;2022-11-20T03:29:03;15.40;;;10.32;;
57443;SDS011;43289;52.962;6.196;2022-11-20T03:31:31;17.23;;;11.18;;
57443;SDS011;43289;52.962;6.196;2022-11-20T03:33:59;16.33;;;10.27;;
57443;SDS011;43289;52.962;6.196;2022-11-20T03:36:25;13.93;;;10.13;;
57443;SDS011;43289;52.962;6.196;2022-11-20T03:38:52;16.60;;;10.32;;
57443;SDS011;43289;52.962;6.196;2022-11-20T03:41:19;19.75;;;11.07;;
57443;SDS011;43289;52.962;6.196;2022-11-20T03:43:55;16.83;;;10.82;;
57443;SDS011;43289;52.962;6.196;2022-11-20T03:46:22;17.00;;;10.98;;
57443;SDS011;43289;52.962;6.196;2022-11-20T03:48:48;29.80;;;11.27;;
57443;SDS011;43289;52.962;6.196;2022-11-20T03:51:15;15.70;;;10.27;;
57443;SDS011;43289;52.962;6.196;2022-11-20T03:53:42;14.55;;;10.50;;
57443;SDS011;43289;52.962;6.196;2022-11-20T03:56:08;18.65;;;11.38;;
57443;SDS011;43289;52.962;6.196;2022-11-20T03:58:35;16.38;;;10.32;;
57443;SDS011;43289;52.962;6.196;2022-11-20T04:01:09;12.95;;;9.45;;
57443;SDS011;43289;52.962;6.196;2022-11-20T04:03:36;17.20;;;9.65;;
57443;SDS011;43289;52.962;6.196;2022-11-20T04:06:06;14.38;;;10.25;;
57443;SDS011;43289;52.962;6.196;2022-11-20T04:08:33;14.50;;;9.52;;
57443;SDS011;43289;52.962;6.196;2022-11-20T04:13:34;17.08;;;11.15;;
57443;SDS011;43289;52.962;6.196;2022-11-20T04:16:00;15.95;;;10.65;;
57443;SDS011;43289;52.962;6.196;2022-11-20T04:18:26;16.88;;;10.55;;
57443;SDS011;43289;52.962;6.196;2022-11-20T04:20:52;15.10;;;10.73;;
57443;SDS011;43289;52.962;6.196;2022-11-20T04:23:18;15.32;;;9.98;;
57443;SDS011;43289;52.962;6.196;2022-11-20T04:25:44;17.50;;;10.32;;
57443;SDS011;43289;52.962;6.196;2022-11-20T04:28:10;14.32;;;10.15;;
57443;SDS011;43289;52.962;6.196;2022-11-20T04:30:36;15.52;;;9.98;;
57443;SDS011;43289;52.962;6.196;2022-11-20T04:33:02;15.27;;;10.18;;
57443;SDS011;43289;52.962;6.196;2022-11-20T04:35:28;16.65;;;10.35;;
57443;SDS011;43289;52.962;6.196;2022-11-20T04:37:53;15.65;;;9.93;;
57443;SDS011;43289;52.962;6.196;2022-11-20T04:40:19;18.42;;;11.25;;
57443;SDS011;43289;52.962;6.196;2022-11-20T04:42:45;15.27;;;10.75;;
57443;SDS011;43289;52.962;6.196;2022-11-20T04:45:11;15.55;;;10.35;;
57443;SDS011;43289;52.962;6.196;2022-11-20T04:47:37;21.83;;;10.25;;
57443;SDS011;43289;52.962;6.196;2022-11-20T04:50:03;18.15;;;12.25;;
57443;SDS011;43289;52.962;6.196;2022-11-20T04:52:30;14.63;;;9.68;;
57443;SDS011;43289;52.962;6.196;2022-11-20T04:54:55;15.27;;;10.32;;
57443;SDS011;43289;52.962;6.196;2022-11-20T04:57:22;14.07;;;9.48;;
57443;SDS011;43289;52.962;6.196;2022-11-20T04:59:47;13.32;;;9.73;;
57443;SDS011;43289;52.962;6.196;2022-11-20T05:02:13;15.93;;;9.77;;
57443;SDS011;43289;52.962;6.196;2022-11-20T05:04:39;16.35;;;9.63;;
57443;SDS011;43289;52.962;6.196;2022-11-20T05:07:05;15.60;;;10.48;;
57443;SDS011;43289;52.962;6.196;2022-11-20T05:09:31;14.80;;;10.63;;
57443;SDS011;43289;52.962;6.196;2022-11-20T05:11:57;16.95;;;10.07;;
57443;SDS011;43289;52.962;6.196;2022-11-20T05:14:23;15.40;;;8.55;;
57443;SDS011;43289;52.962;6.196;2022-11-20T05:16:49;17.35;;;9.23;;
57443;SDS011;43289;52.962;6.196;2022-11-20T05:19:15;15.05;;;9.50;;
57443;SDS011;43289;52.962;6.196;2022-11-20T05:21:41;17.63;;;10.32;;
57443;SDS011;43289;52.962;6.196;2022-11-20T05:24:07;14.75;;;10.05;;
57443;SDS011;43289;52.962;6.196;2022-11-20T05:26:33;17.55;;;10.57;;
57443;SDS011;43289;52.962;6.196;2022-11-20T05:28:59;13.63;;;8.90;;
57443;SDS011;43289;52.962;6.196;2022-11-20T05:31:25;14.80;;;9.27;;
57443;SDS011;43289;52.962;6.196;2022-11-20T05:33:51;15.00;;;10.20;;
57443;SDS011;43289;52.962;6.196;2022-11-20T05:36:17;15.00;;;9.85;;
57443;SDS011;43289;52.962;6.196;2022-11-20T05:38:43;17.02;;;10.90;;
57443;SDS011;43289;52.962;6.196;2022-11-20T05:41:10;15.13;;;10.45;;
57443;SDS011;43289;52.962;6.196;2022-11-20T05:43:38;14.77;;;9.85;;
57443;SDS011;43289;52.962;6.196;2022-11-20T05:46:05;15.88;;;10.57;;
57443;SDS011;43289;52.962;6.196;2022-11-20T05:48:31;14.30;;;9.65;;
57443;SDS011;43289;52.962;6.196;2022-11-20T05:51:01;14.43;;;9.45;;
57443;SDS011;43289;52.962;6.196;2022-11-20T05:53:27;15.82;;;9.35;;
57443;SDS011;43289;52.962;6.196;2022-11-20T05:56:00;14.98;;;9.30;;
57443;SDS011;43289;52.962;6.196;2022-11-20T05:58:27;17.02;;;10.10;;
57443;SDS011;43289;52.962;6.196;2022-11-20T06:00:53;16.58;;;9.85;;
57443;SDS011;43289;52.962;6.196;2022-11-20T06:03:19;14.48;;;9.73;;
57443;SDS011;43289;52.962;6.196;2022-11-20T06:05:45;17.25;;;11.10;;
57443;SDS011;43289;52.962;6.196;2022-11-20T06:08:11;16.70;;;10.45;;
57443;SDS011;43289;52.962;6.196;2022-11-20T06:10:37;15.15;;;10.35;;
57443;SDS011;43289;52.962;6.196;2022-11-20T06:13:03;14.60;;;8.98;;
57443;SDS011;43289;52.962;6.196;2022-11-20T06:15:29;13.68;;;10.15;;
57443;SDS011;43289;52.962;6.196;2022-11-20T06:17:55;14.57;;;10.02;;
57443;SDS011;43289;52.962;6.196;2022-11-20T06:20:21;16.33;;;10.57;;
57443;SDS011;43289;52.962;6.196;2022-11-20T06:22:47;14.45;;;9.45;;
57443;SDS011;43289;52.962;6.196;2022-11-20T06:25:13;14.18;;;9.80;;
57443;SDS011;43289;52.962;6.196;2022-11-20T06:27:39;15.55;;;10.38;;
57443;SDS011;43289;52.962;6.196;2022-11-20T06:30:05;17.77;;;10.43;;
57443;SDS011;43289;52.962;6.196;2022-11-20T06:32:32;16.98;;;9.93;;
57443;SDS011;43289;52.962;6.196;2022-11-20T06:34:58;17.88;;;9.65;;
57443;SDS011;43289;52.962;6.196;2022-11-20T06:37:24;13.25;;;9.95;;
57443;SDS011;43289;52.962;6.196;2022-11-20T06:39:50;16.15;;;9.75;;
57443;SDS011;43289;52.962;6.196;2022-11-20T06:42:16;14.88;;;10.02;;
57443;SDS011;43289;52.962;6.196;2022-11-20T06:44:42;15.10;;;10.70;;
57443;SDS011;43289;52.962;6.196;2022-11-20T06:47:08;17.00;;;10.20;;
57443;SDS011;43289;52.962;6.196;2022-11-20T06:49:34;16.63;;;10.38;;
57443;SDS011;43289;52.962;6.196;2022-11-20T06:52:02;17.25;;;10.63;;
57443;SDS011;43289;52.962;6.196;2022-11-20T06:54:28;16.85;;;10.18;;
57443;SDS011;43289;52.962;6.196;2022-11-20T06:56:54;18.83;;;9.93;;
57443;SDS011;43289;52.962;6.196;2022-11-20T06:59:20;15.45;;;9.93;;
57443;SDS011;43289;52.962;6.196;2022-11-20T07:01:46;15.85;;;9.57;;
57443;SDS011;43289;52.962;6.196;2022-11-20T07:04:12;14.65;;;10.07;;
57443;SDS011;43289;52.962;6.196;2022-11-20T07:06:38;16.73;;;8.82;;
57443;SDS011;43289;52.962;6.196;2022-11-20T07:09:04;14.63;;;9.32;;
57443;SDS011;43289;52.962;6.196;2022-11-20T07:14:52;15.20;;;9.40;;
57443;SDS011;43289;52.962;6.196;2022-11-20T07:17:18;17.05;;;9.25;;
57443;SDS011;43289;52.962;6.196;2022-11-20T07:19:44;15.48;;;9.80;;
57443;SDS011;43289;52.962;6.196;2022-11-20T07:22:10;15.25;;;10.02;;
57443;SDS011;43289;52.962;6.196;2022-11-20T07:24:36;14.15;;;10.00;;
57443;SDS011;43289;52.962;6.196;2022-11-20T07:29:53;15.20;;;9.35;;
57443;SDS011;43289;52.962;6.196;2022-11-20T07:32:19;15.52;;;10.30;;
57443;SDS011;43289;52.962;6.196;2022-11-20T07:34:45;14.93;;;10.20;;
57443;SDS011;43289;52.962;6.196;2022-11-20T07:37:11;16.73;;;9.57;;
57443;SDS011;43289;52.962;6.196;2022-11-20T07:39:37;14.02;;;8.50;;
57443;SDS011;43289;52.962;6.196;2022-11-20T07:42:03;16.45;;;9.40;;
57443;SDS011;43289;52.962;6.196;2022-11-20T07:44:29;16.60;;;9.85;;
57443;SDS011;43289;52.962;6.196;2022-11-20T07:46:55;14.82;;;8.90;;
57443;SDS011;43289;52.962;6.196;2022-11-20T07:49:21;15.88;;;9.48;;
57443;SDS011;43289;52.962;6.196;2022-11-20T07:51:49;15.43;;;10.23;;
57443;SDS011;43289;52.962;6.196;2022-11-20T07:54:16;14.35;;;8.52;;
57443;SDS011;43289;52.962;6.196;2022-11-20T07:57:00;16.00;;;9.40;;
57443;SDS011;43289;52.962;6.196;2022-11-20T07:59:26;15.32;;;9.85;;
57443;SDS011;43289;52.962;6.196;2022-11-20T08:01:52;13.18;;;8.82;;
57443;SDS011;43289;52.962;6.196;2022-11-20T08:04:18;15.00;;;9.50;;
57443;SDS011;43289;52.962;6.196;2022-11-20T08:06:44;15.90;;;9.32;;
57443;SDS011;43289;52.962;6.196;2022-11-20T08:09:10;14.50;;;9.07;;
57443;SDS011;43289;52.962;6.196;2022-11-20T08:11:54;15.07;;;9.77;;
57443;SDS011;43289;52.962;6.196;2022-11-20T08:14:38;12.98;;;8.32;;
57443;SDS011;43289;52.962;6.196;2022-11-20T08:17:04;15.82;;;9.60;;
57443;SDS011;43289;52.962;6.196;2022-11-20T08:19:30;15.13;;;9.35;;
57443;SDS011;43289;52.962;6.196;2022-11-20T08:21:56;14.05;;;9.32;;
57443;SDS011;43289;52.962;6.196;2022-11-20T08:24:22;16.20;;;9.80;;
57443;SDS011;43289;52.962;6.196;2022-11-20T08:26:48;17.00;;;11.00;;
57443;SDS011;43289;52.962;6.196;2022-11-20T08:29:14;14.63;;;9.52;;
57443;SDS011;43289;52.962;6.196;2022-11-20T08:31:40;13.88;;;8.95;;
57443;SDS011;43289;52.962;6.196;2022-11-20T08:34:06;14.02;;;8.77;;
57443;SDS011;43289;52.962;6.196;2022-11-20T08:36:36;14.98;;;10.00;;
57443;SDS011;43289;52.962;6.196;2022-11-20T08:39:02;18.83;;;10.82;;
57443;SDS011;43289;52.962;6.196;2022-11-20T08:41:29;15.73;;;10.45;;
57443;SDS011;43289;52.962;6.196;2022-11-20T08:44:02;13.35;;;8.93;;
57443;SDS011;43289;52.962;6.196;2022-11-20T08:46:46;14.98;;;9.73;;
57443;SDS011;43289;52.962;6.196;2022-11-20T08:52:35;16.15;;;11.10;;
57443;SDS011;43289;52.962;6.196;2022-11-20T08:55:01;15.93;;;10.35;;
57443;SDS011;43289;52.962;6.196;2022-11-20T08:57:27;14.82;;;10.13;;
57443;SDS011;43289;52.962;6.196;2022-11-20T08:59:53;14.95;;;10.48;;
57443;SDS011;43289;52.962;6.196;2022-11-20T09:02:19;14.35;;;9.30;;
57443;SDS011;43289;52.962;6.196;2022-11-20T09:04:45;15.65;;;10.02;;
57443;SDS011;43289;52.962;6.196;2022-11-20T09:07:11;13.77;;;9.10;;
57443;SDS011;43289;52.962;6.196;2022-11-20T09:09:37;16.92;;;10.73;;
57443;SDS011;43289;52.962;6.196;2022-11-20T09:12:03;14.82;;;10.02;;
57443;SDS011;43289;52.962;6.196;2022-11-20T09:14:29;18.13;;;10.02;;
57443;SDS011;43289;52.962;6.196;2022-11-20T09:16:55;15.05;;;9.57;;
57443;SDS011;43289;52.962;6.196;2022-11-20T09:19:23;14.98;;;9.18;;
57443;SDS011;43289;52.962;6.196;2022-11-20T09:21:49;15.85;;;10.68;;
57443;SDS011;43289;52.962;6.196;2022-11-20T09:24:15;14.93;;;9.98;;
57443;SDS011;43289;52.962;6.196;2022-11-20T09:26:41;14.85;;;10.13;;
57443;SDS011;43289;52.962;6.196;2022-11-20T09:29:07;13.93;;;9.10;;
57443;SDS011;43289;52.962;6.196;2022-11-20T09:31:33;12.68;;;8.63;;
57443;SDS011;43289;52.962;6.196;2022-11-20T09:33:59;13.15;;;8.55;;
57443;SDS011;43289;52.962;6.196;2022-11-20T09:36:25;14.32;;;9.32;;
57443;SDS011;43289;52.962;6.196;2022-11-20T09:38:51;14.25;;;9.50;;
57443;SDS011;43289;52.962;6.196;2022-11-20T09:48:56;12.88;;;8.43;;
57443;SDS011;43289;52.962;6.196;2022-11-20T09:51:39;12.48;;;8.55;;
57443;SDS011;43289;52.962;6.196;2022-11-20T09:54:19;15.55;;;8.38;;
57443;SDS011;43289;52.962;6.196;2022-11-20T09:56:53;11.10;;;7.43;;
57443;SDS011;43289;52.962;6.196;2022-11-20T10:01:46;12.75;;;8.73;;
57443;SDS011;43289;52.962;6.196;2022-11-20T10:04:14;13.75;;;8.50;;
57443;SDS011;43289;52.962;6.196;2022-11-20T10:06:47;14.38;;;8.68;;
57443;SDS011;43289;52.962;6.196;2022-11-20T10:09:28;13.75;;;8.45;;
57443;SDS011;43289;52.962;6.196;2022-11-20T10:11:59;14.02;;;8.13;;
57443;SDS011;43289;52.962;6.196;2022-11-20T10:17:06;11.68;;;7.03;;
57443;SDS011;43289;52.962;6.196;2022-11-20T10:24:48;9.00;;;5.63;;
57443;SDS011;43289;52.962;6.196;2022-11-20T10:31:34;11.45;;;6.57;;
57443;SDS011;43289;52.962;6.196;2022-11-20T10:34:12;9.82;;;6.28;;
57443;SDS011;43289;52.962;6.196;2022-11-20T10:36:44;9.27;;;6.20;;
57443;SDS011;43289;52.962;6.196;2022-11-20T10:39:16;9.65;;;6.43;;
57443;SDS011;43289;52.962;6.196;2022-11-20T10:41:44;10.60;;;6.55;;
57443;SDS011;43289;52.962;6.196;2022-11-20T10:44:26;10.65;;;6.93;;
57443;SDS011;43289;52.962;6.196;2022-11-20T10:47:18;10.18;;;6.30;;
57443;SDS011;43289;52.962;6.196;2022-11-20T10:57:46;8.27;;;5.90;;
57443;SDS011;43289;52.962;6.196;2022-11-20T11:00:18;11.32;;;5.80;;
57443;SDS011;43289;52.962;6.196;2022-11-20T11:02:47;8.95;;;5.68;;
57443;SDS011;43289;52.962;6.196;2022-11-20T11:07:42;8.68;;;6.28;;
57443;SDS011;43289;52.962;6.196;2022-11-20T11:13:32;9.88;;;6.18;;
57443;SDS011;43289;52.962;6.196;2022-11-20T11:15:58;9.70;;;5.68;;
57443;SDS011;43289;52.962;6.196;2022-11-20T11:18:25;9.35;;;6.05;;
57443;SDS011;43289;52.962;6.196;2022-11-20T11:20:53;7.95;;;5.18;;
57443;SDS011;43289;52.962;6.196;2022-11-20T11:23:29;11.05;;;6.40;;
57443;SDS011;43289;52.962;6.196;2022-11-20T11:25:57;8.95;;;5.80;;
57443;SDS011;43289;52.962;6.196;2022-11-20T11:28:26;8.75;;;5.63;;
57443;SDS011;43289;52.962;6.196;2022-11-20T11:30:55;9.07;;;5.40;;
57443;SDS011;43289;52.962;6.196;2022-11-20T11:35:52;8.82;;;5.40;;
57443;SDS011;43289;52.962;6.196;2022-11-20T11:38:22;7.88;;;5.40;;
57443;SDS011;43289;52.962;6.196;2022-11-20T11:40:53;9.70;;;6.20;;
57443;SDS011;43289;52.962;6.196;2022-11-20T11:43:20;9.60;;;6.10;;
57443;SDS011;43289;52.962;6.196;2022-11-20T11:48:59;8.70;;;5.35;;
57443;SDS011;43289;52.962;6.196;2022-11-20T11:54:16;8.50;;;5.28;;
57443;SDS011;43289;52.962;6.196;2022-11-20T11:56:43;10.10;;;5.63;;
57443;SDS011;43289;52.962;6.196;2022-11-20T11:59:17;8.23;;;5.18;;
57443;SDS011;43289;52.962;6.196;2022-11-20T12:01:57;7.88;;;5.18;;
57443;SDS011;43289;52.962;6.196;2022-11-20T12:04:37;8.48;;;5.28;;
57443;SDS011;43289;52.962;6.196;2022-11-20T12:09:39;7.18;;;4.85;;
57443;SDS011;43289;52.962;6.196;2022-11-20T12:12:18;7.97;;;5.30;;
57443;SDS011;43289;52.962;6.196;2022-11-20T12:14:46;6.97;;;4.68;;
57443;SDS011;43289;52.962;6.196;2022-11-20T12:17:15;8.05;;;5.13;;
57443;SDS011;43289;52.962;6.196;2022-11-20T12:19:41;8.95;;;5.60;;
57443;SDS011;43289;52.962;6.196;2022-11-20T12:33:12;8.32;;;5.53;;
57443;SDS011;43289;52.962;6.196;2022-11-20T12:36:00;7.25;;;4.95;;
57443;SDS011;43289;52.962;6.196;2022-11-20T12:41:22;8.45;;;5.32;;
57443;SDS011;43289;52.962;6.196;2022-11-20T12:47:24;8.95;;;5.10;;
57443;SDS011;43289;52.962;6.196;2022-11-20T12:50:37;16.42;;;14.38;;
57443;SDS011;43289;52.962;6.196;2022-11-20T12:52:47;8.07;;;5.78;;
57443;SDS011;43289;52.962;6.196;2022-11-20T12:58:12;8.07;;;5.35;;
57443;SDS011;43289;52.962;6.196;2022-11-20T13:00:46;10.88;;;5.82;;
57443;SDS011;43289;52.962;6.196;2022-11-20T13:08:25;9.75;;;6.20;;
57443;SDS011;43289;52.962;6.196;2022-11-20T13:18:37;9.13;;;5.82;;
57443;SDS011;43289;52.962;6.196;2022-11-20T13:26:44;10.85;;;6.00;;
57443;SDS011;43289;52.962;6.196;2022-11-20T13:29:18;11.77;;;6.25;;
57443;SDS011;43289;52.962;6.196;2022-11-20T13:31:45;10.75;;;6.35;;
57443;SDS011;43289;52.962;6.196;2022-11-20T13:34:12;9.57;;;6.03;;
57443;SDS011;43289;52.962;6.196;2022-11-20T13:40:11;8.70;;;5.88;;
57443;SDS011;43289;52.962;6.196;2022-11-20T13:42:40;9.38;;;5.90;;
57443;SDS011;43289;52.962;6.196;2022-11-20T13:45:10;10.43;;;6.22;;
57443;SDS011;43289;52.962;6.196;2022-11-20T13:47:37;10.60;;;6.47;;
57443;SDS011;43289;52.962;6.196;2022-11-20T13:50:03;10.70;;;6.97;;
57443;SDS011;43289;52.962;6.196;2022-11-20T13:52:52;8.77;;;5.90;;
57443;SDS011;43289;52.962;6.196;2022-11-20T14:03:38;10.18;;;6.55;;
57443;SDS011;43289;52.962;6.196;2022-11-20T14:06:05;9.73;;;7.13;;
57443;SDS011;43289;52.962;6.196;2022-11-20T14:08:46;11.05;;;6.32;;
57443;SDS011;43289;52.962;6.196;2022-11-20T14:11:14;10.63;;;6.53;;
57443;SDS011;43289;52.962;6.196;2022-11-20T14:13:50;9.82;;;6.13;;
57443;SDS011;43289;52.962;6.196;2022-11-20T14:16:19;9.15;;;6.07;;
57443;SDS011;43289;52.962;6.196;2022-11-20T14:18:45;10.48;;;6.63;;
57443;SDS011;43289;52.962;6.196;2022-11-20T14:21:11;10.35;;;6.93;;
57443;SDS011;43289;52.962;6.196;2022-11-20T14:23:37;11.60;;;7.15;;
57443;SDS011;43289;52.962;6.196;2022-11-20T14:26:03;10.70;;;6.78;;
57443;SDS011;43289;52.962;6.196;2022-11-20T14:28:30;9.88;;;7.05;;
57443;SDS011;43289;52.962;6.196;2022-11-20T14:30:56;12.52;;;7.57;;
57443;SDS011;43289;52.962;6.196;2022-11-20T14:33:23;11.32;;;8.43;;
57443;SDS011;43289;52.962;6.196;2022-11-20T14:36:15;9.95;;;7.05;;
57443;SDS011;43289;52.962;6.196;2022-11-20T14:38:41;10.38;;;6.55;;
57443;SDS011;43289;52.962;6.196;2022-11-20T14:41:08;13.57;;;7.35;;
57443;SDS011;43289;52.962;6.196;2022-11-20T14:43:44;11.23;;;7.53;;
57443;SDS011;43289;52.962;6.196;2022-11-20T14:46:16;13.65;;;6.90;;
57443;SDS011;43289;52.962;6.196;2022-11-20T14:51:11;11.57;;;7.38;;
57443;SDS011;43289;52.962;6.196;2022-11-20T14:53:38;12.15;;;7.22;;
57443;SDS011;43289;52.962;6.196;2022-11-20T14:56:04;13.18;;;7.93;;
57443;SDS011;43289;52.962;6.196;2022-11-20T14:58:31;10.13;;;6.78;;
57443;SDS011;43289;52.962;6.196;2022-11-20T15:01:05;12.48;;;7.63;;
57443;SDS011;43289;52.962;6.196;2022-11-20T15:03:35;11.13;;;7.68;;
57443;SDS011;43289;52.962;6.196;2022-11-20T15:06:02;12.45;;;7.75;;
57443;SDS011;43289;52.962;6.196;2022-11-20T15:08:28;11.88;;;7.65;;
57443;SDS011;43289;52.962;6.196;2022-11-20T15:10:54;13.20;;;7.68;;
57443;SDS011;43289;52.962;6.196;2022-11-20T15:13:34;9.35;;;6.88;;
57443;SDS011;43289;52.962;6.196;2022-11-20T15:16:02;11.88;;;7.15;;
57443;SDS011;43289;52.962;6.196;2022-11-20T15:18:33;12.82;;;8.25;;
57443;SDS011;43289;52.962;6.196;2022-11-20T15:21:03;11.57;;;8.20;;
57443;SDS011;43289;52.962;6.196;2022-11-20T15:23:29;12.05;;;8.18;;
57443;SDS011;43289;52.962;6.196;2022-11-20T15:25:55;11.00;;;8.13;;
57443;SDS011;43289;52.962;6.196;2022-11-20T15:28:25;12.35;;;7.90;;
57443;SDS011;43289;52.962;6.196;2022-11-20T15:30:53;11.73;;;8.00;;
57443;SDS011;43289;52.962;6.196;2022-11-20T15:33:23;13.23;;;8.15;;
57443;SDS011;43289;52.962;6.196;2022-11-20T15:35:50;11.98;;;7.80;;
57443;SDS011;43289;52.962;6.196;2022-11-20T15:38:16;11.30;;;7.95;;
57443;SDS011;43289;52.962;6.196;2022-11-20T15:40:42;11.07;;;7.50;;
57443;SDS011;43289;52.962;6.196;2022-11-20T15:43:08;10.70;;;8.25;;
57443;SDS011;43289;52.962;6.196;2022-11-20T15:45:41;12.35;;;7.85;;
57443;SDS011;43289;52.962;6.196;2022-11-20T15:48:09;12.77;;;8.30;;
57443;SDS011;43289;52.962;6.196;2022-11-20T15:50:41;11.45;;;8.07;;
57443;SDS011;43289;52.962;6.196;2022-11-20T15:53:09;12.85;;;8.60;;
57443;SDS011;43289;52.962;6.196;2022-11-20T15:55:35;12.93;;;8.88;;
57443;SDS011;43289;52.962;6.196;2022-11-20T15:58:01;14.27;;;8.52;;
57443;SDS011;43289;52.962;6.196;2022-11-20T16:00:27;12.20;;;8.45;;
57443;SDS011;43289;52.962;6.196;2022-11-20T16:02:53;14.38;;;8.90;;
57443;SDS011;43289;52.962;6.196;2022-11-20T16:05:19;10.23;;;7.30;;
57443;SDS011;43289;52.962;6.196;2022-11-20T16:07:48;12.05;;;8.30;;
57443;SDS011;43289;52.962;6.196;2022-11-20T16:10:14;11.95;;;7.97;;
57443;SDS011;43289;52.962;6.196;2022-11-20T16:12:41;12.65;;;8.93;;
57443;SDS011;43289;52.962;6.196;2022-11-20T16:15:25;11.55;;;7.97;;
57443;SDS011;43289;52.962;6.196;2022-11-20T16:18:10;12.23;;;8.48;;
57443;SDS011;43289;52.962;6.196;2022-11-20T16:20:38;12.90;;;8.88;;
57443;SDS011;43289;52.962;6.196;2022-11-20T16:23:04;13.88;;;9.65;;
57443;SDS011;43289;52.962;6.196;2022-11-20T16:25:30;13.57;;;8.60;;
57443;SDS011;43289;52.962;6.196;2022-11-20T16:27:57;12.55;;;7.78;;
57443;SDS011;43289;52.962;6.196;2022-11-20T16:30:23;16.10;;;9.77;;
57443;SDS011;43289;52.962;6.196;2022-11-20T16:32:49;14.38;;;8.60;;